Time;durP1;ratioP1;P1;durP2;ratioP2;P2;SDS_P1;SDS_P2;PMS_P1;PMS_P2;Temp;Humidity;BMP_temperature;BMP_pressure;BME280_temperature;BME280_humidity;BME280_pressure;Samples;Min_cycle;Max_cycle;Signal;HPM_P1;HPM_P2
2022/07/24 00:01:33;;;;;;;31.58;16.13;;;15.10;99.90;;;;;;5054187;28;20629;-71
2022/07/24 00:04:03;;;;;;;27.73;15.68;;;15.10;99.90;;;;;;5053743;28;20044;-71
2022/07/24 00:06:28;;;;;;;25.42;15.00;;;15.10;99.90;;;;;;5075478;28;20048;-71
2022/07/24 00:08:54;;;;;;;25.35;15.52;;;15.10;99.90;;;;;;5058412;28;20032;-71
2022/07/24 00:11:20;;;;;;;25.60;14.82;;;15.00;99.90;;;;;;5058300;28;20507;-71
2022/07/24 00:13:46;;;;;;;24.83;15.05;;;15.00;99.90;;;;;;5061555;28;20035;-71
2022/07/24 00:16:11;;;;;;;25.15;15.48;;;15.00;99.90;;;;;;5062614;28;20040;-71
2022/07/24 00:18:37;;;;;;;22.55;14.35;;;15.10;99.90;;;;;;5056727;28;20163;-71
2022/07/24 00:21:03;;;;;;;24.15;15.38;;;15.10;99.90;;;;;;5053869;28;20033;-72
2022/07/24 00:23:29;;;;;;;23.67;14.93;;;15.10;99.90;;;;;;5051058;28;20040;-71
2022/07/24 00:25:55;;;;;;;24.67;15.13;;;15.10;99.90;;;;;;5059202;28;20292;-71
2022/07/24 00:28:21;;;;;;;24.17;14.82;;;15.20;99.90;;;;;;5057977;28;20024;-71
2022/07/24 00:30:47;;;;;;;26.45;15.48;;;15.00;99.90;;;;;;5055758;28;20394;-71
2022/07/24 00:33:12;;;;;;;26.73;15.05;;;15.20;99.90;;;;;;5052764;28;20427;-71
2022/07/24 00:35:38;;;;;;;35.95;15.63;;;15.10;99.90;;;;;;5052193;28;20045;-72
2022/07/24 00:38:04;;;;;;;29.70;16.10;;;15.10;99.90;;;;;;5057358;28;20120;-71
2022/07/24 00:40:30;;;;;;;24.17;16.08;;;15.20;99.90;;;;;;5051097;28;20087;-71
2022/07/24 00:42:57;;;;;;;24.10;15.50;;;15.20;99.90;;;;;;5059387;28;20045;-71
2022/07/24 00:45:24;;;;;;;24.15;14.98;;;15.10;99.90;;;;;;5057369;28;20119;-71
2022/07/24 00:47:49;;;;;;;26.27;14.80;;;15.10;99.90;;;;;;5053402;28;20431;-71
2022/07/24 00:50:15;;;;;;;24.13;14.43;;;15.20;99.90;;;;;;5054921;28;20040;-71
2022/07/24 00:52:43;;;;;;;21.67;14.02;;;15.20;99.90;;;;;;5062102;28;20033;-71
2022/07/24 00:55:11;;;;;;;23.45;14.57;;;15.10;99.90;;;;;;5052342;28;20110;-71
2022/07/24 00:57:37;;;;;;;26.15;14.57;;;15.10;99.90;;;;;;5054048;28;20036;-71
2022/07/24 01:00:07;;;;;;;24.00;14.68;;;15.10;99.90;;;;;;5050810;28;20108;-71
2022/07/24 01:02:33;;;;;;;24.20;14.48;;;15.10;99.90;;;;;;5059479;28;20259;-72
2022/07/24 01:04:59;;;;;;;24.02;14.48;;;15.10;99.90;;;;;;5066776;28;20041;-71
2022/07/24 01:07:25;;;;;;;25.40;14.73;;;15.10;99.90;;;;;;5048220;28;20037;-71
2022/07/24 01:09:51;;;;;;;25.08;14.95;;;15.10;99.90;;;;;;5050147;28;20080;-71
2022/07/24 01:12:17;;;;;;;25.33;14.35;;;15.10;99.90;;;;;;5041221;28;20047;-71
2022/07/24 01:14:43;;;;;;;29.00;15.10;;;15.10;99.90;;;;;;5051509;28;20182;-71
2022/07/24 01:17:09;;;;;;;24.77;13.93;;;15.10;99.90;;;;;;5053427;28;20177;-71
2022/07/24 01:19:35;;;;;;;24.13;14.73;;;15.10;99.90;;;;;;5057269;28;20037;-71
2022/07/24 01:22:01;;;;;;;23.15;13.30;;;15.10;99.90;;;;;;5055291;28;20571;-71
2022/07/24 01:24:26;;;;;;;28.40;14.85;;;15.10;99.90;;;;;;5054623;28;20047;-71
2022/07/24 01:26:52;;;;;;;24.65;13.98;;;15.00;99.90;;;;;;5054972;28;20045;-71
2022/07/24 01:29:17;;;;;;;27.92;14.65;;;15.10;99.90;;;;;;5058881;28;20419;-71
2022/07/24 01:31:43;;;;;;;26.77;14.82;;;15.10;99.90;;;;;;5058139;28;20036;-72
2022/07/24 01:34:09;;;;;;;23.20;14.25;;;15.10;99.90;;;;;;5052319;28;20556;-71
2022/07/24 01:36:34;;;;;;;26.27;15.20;;;15.10;99.90;;;;;;5053992;28;20048;-71
2022/07/24 01:39:00;;;;;;;33.05;15.93;;;15.10;99.90;;;;;;5054411;28;20044;-71
2022/07/24 01:41:25;;;;;;;25.75;15.18;;;15.10;99.90;;;;;;5059238;28;20052;-72
2022/07/24 01:43:51;;;;;;;26.02;15.07;;;15.00;99.90;;;;;;5053030;28;20047;-72
2022/07/24 01:46:17;;;;;;;26.88;15.95;;;15.00;99.90;;;;;;5056452;28;20052;-72
2022/07/24 01:48:43;;;;;;;28.23;16.23;;;15.00;99.90;;;;;;5057023;28;20068;-72
2022/07/24 01:51:10;;;;;;;28.40;16.45;;;15.00;99.90;;;;;;5057901;28;20044;-72
2022/07/24 01:53:36;;;;;;;28.60;15.88;;;15.00;99.90;;;;;;5057909;28;20508;-71
2022/07/24 01:56:02;;;;;;;27.75;16.05;;;15.00;99.90;;;;;;5056860;28;21546;-71
2022/07/24 01:58:28;;;;;;;26.20;15.40;;;15.00;99.90;;;;;;5053373;28;20510;-71
2022/07/24 02:00:53;;;;;;;28.25;16.35;;;14.90;99.90;;;;;;5055591;28;20040;-70
2022/07/24 02:03:19;;;;;;;30.05;16.30;;;15.00;99.90;;;;;;5052893;28;20048;-71
2022/07/24 02:05:45;;;;;;;30.20;16.50;;;15.00;99.90;;;;;;5056615;28;20076;-70
2022/07/24 02:08:11;;;;;;;27.27;16.08;;;14.80;99.90;;;;;;5051560;28;20080;-71
2022/07/24 02:10:37;;;;;;;30.80;16.35;;;14.80;99.90;;;;;;5056970;28;20444;-70
2022/07/24 02:13:02;;;;;;;27.90;15.55;;;14.90;99.90;;;;;;5057665;28;20052;-71
2022/07/24 02:15:28;;;;;;;33.80;16.10;;;15.00;99.90;;;;;;5052442;28;20048;-71
2022/07/24 02:17:58;;;;;;;25.50;14.68;;;14.90;99.90;;;;;;5050795;28;20059;-71
2022/07/24 02:20:24;;;;;;;28.08;16.13;;;14.80;99.90;;;;;;5054943;28;20048;-71
2022/07/24 02:22:49;;;;;;;24.88;15.70;;;15.00;99.90;;;;;;5055636;28;20145;-70
2022/07/24 02:25:15;;;;;;;27.48;15.75;;;14.90;99.90;;;;;;5052997;28;20151;-71
2022/07/24 02:27:41;;;;;;;26.80;15.10;;;14.90;99.90;;;;;;5055309;28;20072;-71
2022/07/24 02:30:10;;;;;;;27.05;15.70;;;14.90;99.90;;;;;;5058517;28;20037;-71
2022/07/24 02:32:36;;;;;;;24.50;14.65;;;14.80;99.90;;;;;;5056892;28;20503;-71
2022/07/24 02:35:02;;;;;;;26.58;15.50;;;14.90;99.90;;;;;;5053078;28;20033;-71
2022/07/24 02:37:28;;;;;;;27.48;15.02;;;14.90;99.90;;;;;;5049831;28;20049;-71
2022/07/24 02:39:54;;;;;;;26.38;15.25;;;15.00;99.90;;;;;;5051653;28;20508;-71
2022/07/24 02:42:19;;;;;;;30.05;16.10;;;14.90;99.90;;;;;;5055667;28;20033;-71
2022/07/24 02:44:45;;;;;;;27.88;15.27;;;14.90;99.90;;;;;;5052952;28;20052;-72
2022/07/24 02:47:10;;;;;;;28.88;15.95;;;14.90;99.90;;;;;;5057259;28;20068;-71
2022/07/24 02:49:36;;;;;;;26.15;14.43;;;14.90;99.90;;;;;;5051000;28;20044;-71
2022/07/24 02:52:03;;;;;;;30.17;16.58;;;14.90;99.90;;;;;;5035344;28;20033;-71
2022/07/24 02:54:28;;;;;;;29.08;16.02;;;14.90;99.90;;;;;;5055670;28;20051;-71
2022/07/24 02:56:54;;;;;;;27.20;15.43;;;15.00;99.90;;;;;;5053146;28;20036;-71
2022/07/24 02:59:19;;;;;;;28.73;15.82;;;14.80;99.90;;;;;;5052500;28;20414;-71
2022/07/24 03:01:45;;;;;;;24.35;14.93;;;14.80;99.90;;;;;;5057291;28;20051;-72
2022/07/24 03:04:11;;;;;;;27.00;14.98;;;14.80;99.90;;;;;;5055101;28;20403;-71
2022/07/24 03:06:36;;;;;;;26.08;15.60;;;14.90;99.90;;;;;;5056500;28;20039;-71
2022/07/24 03:09:03;;;;;;;27.83;15.30;;;14.80;99.90;;;;;;5054303;28;20082;-71
2022/07/24 03:11:29;;;;;;;26.80;15.23;;;14.80;99.90;;;;;;5053619;28;20115;-71
2022/07/24 03:13:54;;;;;;;26.02;15.43;;;14.90;99.90;;;;;;5056112;28;20170;-72
2022/07/24 03:16:20;;;;;;;28.30;14.63;;;14.90;99.90;;;;;;5051831;28;20052;-72
2022/07/24 03:18:47;;;;;;;29.33;16.08;;;14.80;99.90;;;;;;5055242;28;20044;-72
2022/07/24 03:21:17;;;;;;;28.38;15.20;;;14.70;99.90;;;;;;5054981;28;20770;-72
2022/07/24 03:23:43;;;;;;;28.00;15.43;;;14.80;99.90;;;;;;5055078;28;20379;-72
2022/07/24 03:26:09;;;;;;;26.65;15.35;;;14.70;99.90;;;;;;5063247;28;20033;-72
2022/07/24 03:28:35;;;;;;;25.75;15.75;;;14.70;99.90;;;;;;5057854;28;20569;-72
2022/07/24 03:31:01;;;;;;;27.90;15.65;;;14.70;99.90;;;;;;5061768;28;20036;-71
2022/07/24 03:33:28;;;;;;;28.58;15.18;;;14.70;99.90;;;;;;5060339;28;20119;-71
2022/07/24 03:35:54;;;;;;;32.10;16.80;;;14.80;99.90;;;;;;5067503;28;20498;-72
2022/07/24 03:38:20;;;;;;;24.67;15.52;;;14.70;99.90;;;;;;5054016;28;20048;-72
2022/07/24 03:40:46;;;;;;;28.52;16.48;;;14.80;99.90;;;;;;5060013;28;20052;-72
2022/07/24 03:43:11;;;;;;;32.28;16.85;;;14.70;99.90;;;;;;5062007;28;20395;-72
2022/07/24 03:45:37;;;;;;;31.27;17.55;;;14.70;99.90;;;;;;5062012;28;20041;-72
2022/07/24 03:48:04;;;;;;;31.00;16.35;;;14.70;99.90;;;;;;5052537;28;20072;-72
2022/07/24 03:50:29;;;;;;;30.95;17.63;;;14.70;99.90;;;;;;5056407;28;20147;-72
2022/07/24 03:52:55;;;;;;;30.25;17.42;;;14.70;99.90;;;;;;5070620;28;20041;-72
2022/07/24 03:55:21;;;;;;;28.63;16.30;;;14.60;99.90;;;;;;5055710;28;20140;-71
2022/07/24 03:57:46;;;;;;;28.80;15.80;;;14.70;99.90;;;;;;5054210;28;20048;-72
2022/07/24 04:00:12;;;;;;;28.15;16.85;;;14.60;99.90;;;;;;5069773;28;20040;-72
2022/07/24 04:02:38;;;;;;;28.73;16.33;;;14.70;99.90;;;;;;5052801;28;20579;-72
2022/07/24 04:05:08;;;;;;;29.30;16.63;;;14.60;99.90;;;;;;5054349;28;20121;-72
2022/07/24 04:07:34;;;;;;;30.13;17.08;;;14.70;99.90;;;;;;5057001;28;20041;-72
2022/07/24 04:10:00;;;;;;;32.83;18.20;;;14.70;99.90;;;;;;5053384;28;20075;-72
2022/07/24 04:12:26;;;;;;;32.40;17.75;;;14.70;99.90;;;;;;5062474;28;20490;-72
2022/07/24 04:14:51;;;;;;;29.77;16.92;;;14.80;99.90;;;;;;5055152;28;20115;-72
2022/07/24 04:17:17;;;;;;;33.45;18.27;;;14.70;99.90;;;;;;5053282;28;20041;-71
2022/07/24 04:19:43;;;;;;;35.42;18.23;;;14.70;99.90;;;;;;5057523;28;20638;-71
2022/07/24 04:22:08;;;;;;;35.03;17.70;;;14.60;99.90;;;;;;5061522;28;20098;-71
2022/07/24 04:24:34;;;;;;;32.75;18.45;;;14.60;99.90;;;;;;5066856;28;20067;-71
2022/07/24 04:26:59;;;;;;;31.70;17.95;;;14.60;99.90;;;;;;5053956;28;20036;-71
2022/07/24 04:29:25;;;;;;;34.17;18.60;;;14.70;99.90;;;;;;5057083;28;20029;-71
2022/07/24 04:31:50;;;;;;;33.53;19.52;;;14.60;99.90;;;;;;5056291;28;20040;-72
2022/07/24 04:34:16;;;;;;;30.00;18.23;;;14.70;99.90;;;;;;5055838;28;20478;-71
2022/07/24 04:36:42;;;;;;;32.75;18.73;;;14.70;99.90;;;;;;5061146;28;20036;-71
2022/07/24 04:39:07;;;;;;;30.08;17.48;;;14.90;99.90;;;;;;5061398;28;20041;-72
2022/07/24 04:41:33;;;;;;;35.70;18.40;;;14.80;99.90;;;;;;5060568;28;20045;-71
2022/07/24 04:43:58;;;;;;;32.75;18.83;;;14.90;99.90;;;;;;5059532;28;20496;-71
2022/07/24 04:46:24;;;;;;;38.08;19.20;;;14.90;99.90;;;;;;5056114;28;20037;-71
2022/07/24 04:48:50;;;;;;;36.25;19.13;;;14.90;99.90;;;;;;5060859;28;20085;-71
2022/07/24 04:51:16;;;;;;;34.75;18.33;;;14.90;99.90;;;;;;5055591;28;20089;-71
2022/07/24 04:53:41;;;;;;;33.75;18.27;;;15.10;99.90;;;;;;5060478;28;20045;-71
2022/07/24 04:56:07;;;;;;;33.63;18.15;;;15.10;99.90;;;;;;5059384;28;20040;-71
2022/07/24 04:58:32;;;;;;;35.10;18.52;;;15.20;99.90;;;;;;5058243;28;20047;-71
2022/07/24 05:00:58;;;;;;;30.45;17.17;;;15.20;99.90;;;;;;5058162;28;20498;-71
2022/07/24 05:03:24;;;;;;;31.80;17.67;;;15.30;99.90;;;;;;5062023;28;20033;-72
2022/07/24 05:05:49;;;;;;;34.15;18.17;;;15.20;99.90;;;;;;5057899;28;20047;-70
2022/07/24 05:08:15;;;;;;;31.05;17.42;;;15.40;99.90;;;;;;5063054;28;20052;-70
2022/07/24 05:10:44;;;;;;;33.20;17.98;;;15.30;99.90;;;;;;5055739;28;20042;-70
2022/07/24 05:13:09;;;;;;;38.63;19.23;;;15.30;99.90;;;;;;5037749;28;20775;-71
2022/07/24 05:15:35;;;;;;;30.67;17.60;;;15.50;99.90;;;;;;5058561;28;20124;-71
2022/07/24 05:18:01;;;;;;;31.33;18.67;;;15.50;99.90;;;;;;5053330;28;20107;-71
2022/07/24 05:20:26;;;;;;;32.72;19.15;;;15.70;99.90;;;;;;5054822;28;20044;-71
2022/07/24 05:22:52;;;;;;;35.10;18.50;;;15.70;99.90;;;;;;5053203;28;20045;-70
2022/07/24 05:25:18;;;;;;;31.38;18.10;;;15.70;99.90;;;;;;5053690;28;20079;-71
2022/07/24 05:27:43;;;;;;;39.60;19.58;;;15.80;99.90;;;;;;5057258;28;20033;-71
2022/07/24 05:30:10;;;;;;;33.35;18.50;;;15.80;99.90;;;;;;5054266;28;20379;-71
2022/07/24 05:32:35;;;;;;;30.02;17.67;;;16.00;99.90;;;;;;5057689;28;20170;-71
2022/07/24 05:35:01;;;;;;;32.70;19.15;;;16.10;99.90;;;;;;5051442;28;20250;-72
2022/07/24 05:37:27;;;;;;;38.05;19.70;;;16.20;99.90;;;;;;5053195;28;20083;-72
2022/07/24 05:39:52;;;;;;;34.63;19.52;;;16.50;99.90;;;;;;5055343;28;20040;-72
2022/07/24 05:42:18;;;;;;;34.33;20.00;;;16.60;99.90;;;;;;5053252;28;20037;-71
2022/07/24 05:44:43;;;;;;;33.83;19.33;;;16.70;99.90;;;;;;5050498;28;20049;-72
2022/07/24 05:47:09;;;;;;;39.38;20.25;;;16.90;99.90;;;;;;5052793;28;20029;-72
2022/07/24 05:49:34;;;;;;;40.95;21.33;;;17.00;99.90;;;;;;5055311;28;20231;-71
2022/07/24 05:52:02;;;;;;;34.80;20.92;;;17.10;99.90;;;;;;5049745;28;20048;-73
2022/07/24 05:54:27;;;;;;;38.60;20.52;;;17.20;99.90;;;;;;5054245;28;20056;-72
2022/07/24 05:56:53;;;;;;;40.15;20.08;;;17.40;99.90;;;;;;5055063;28;20400;-72
2022/07/24 05:59:19;;;;;;;39.90;21.33;;;17.40;99.90;;;;;;5055726;28;20139;-71
2022/07/24 06:01:44;;;;;;;36.47;20.73;;;17.50;99.90;;;;;;5056342;28;20043;-71
2022/07/24 06:04:10;;;;;;;38.92;20.98;;;17.60;99.90;;;;;;5057086;28;20048;-72
2022/07/24 06:06:35;;;;;;;38.45;21.63;;;17.70;99.90;;;;;;5052795;28;20037;-72
2022/07/24 06:09:01;;;;;;;41.72;21.35;;;17.80;99.90;;;;;;5056525;28;20522;-72
2022/07/24 06:11:27;;;;;;;38.80;21.58;;;18.00;99.90;;;;;;5051819;28;20033;-71
2022/07/24 06:13:52;;;;;;;40.38;22.60;;;18.00;99.90;;;;;;5054153;28;20033;-72
2022/07/24 06:16:18;;;;;;;43.30;23.33;;;18.10;99.90;;;;;;5054896;28;20639;-72
2022/07/24 06:18:43;;;;;;;46.20;22.65;;;18.30;99.90;;;;;;5051869;28;20502;-72
2022/07/24 06:21:09;;;;;;;43.75;23.80;;;18.40;99.90;;;;;;5054297;28;20120;-72
2022/07/24 06:23:35;;;;;;;43.10;23.58;;;18.50;99.90;;;;;;5052265;28;20518;-71
2022/07/24 06:26:00;;;;;;;45.63;24.17;;;18.60;99.90;;;;;;5070275;28;20048;-73
2022/07/24 06:28:26;;;;;;;44.92;23.88;;;18.70;99.90;;;;;;5054220;28;20025;-72
2022/07/24 06:30:52;;;;;;;47.25;23.73;;;18.80;99.90;;;;;;5052876;28;20032;-72
2022/07/24 06:33:17;;;;;;;48.45;24.52;;;18.90;99.90;;;;;;5052301;28;20093;-72
2022/07/24 06:35:43;;;;;;;46.88;23.90;;;19.00;99.90;;;;;;5056218;28;20044;-73
2022/07/24 06:38:11;;;;;;;43.45;23.45;;;19.20;99.90;;;;;;5062414;28;20129;-71
2022/07/24 06:40:38;;;;;;;55.22;26.35;;;19.20;99.90;;;;;;5053017;28;20072;-72
2022/07/24 06:43:04;;;;;;;53.65;25.73;;;19.30;99.90;;;;;;5065163;28;20060;-72
2022/07/24 06:45:32;;;;;;;49.75;26.45;;;19.40;99.90;;;;;;5054681;28;20033;-72
2022/07/24 06:48:02;;;;;;;50.63;27.17;;;19.40;99.90;;;;;;5049449;28;20044;-72
2022/07/24 06:50:28;;;;;;;50.40;26.83;;;19.50;99.90;;;;;;5054631;28;20045;-72
2022/07/24 06:52:54;;;;;;;53.50;26.75;;;19.50;99.90;;;;;;5053409;28;20053;-70
2022/07/24 06:55:20;;;;;;;50.15;26.40;;;19.60;99.90;;;;;;5057245;28;20041;-71
2022/07/24 06:57:45;;;;;;;51.13;27.65;;;19.70;99.90;;;;;;5056126;28;20475;-71
2022/07/24 07:00:12;;;;;;;52.90;28.50;;;19.80;99.90;;;;;;5053384;28;20169;-72
2022/07/24 07:02:38;;;;;;;57.67;29.15;;;19.90;99.90;;;;;;5059250;28;20044;-71
2022/07/24 07:05:06;;;;;;;56.88;27.95;;;20.00;99.90;;;;;;5060894;28;20037;-70
2022/07/24 07:07:32;;;;;;;54.92;28.65;;;20.10;99.90;;;;;;5059615;28;20490;-70
2022/07/24 07:09:57;;;;;;;50.55;27.98;;;20.10;99.90;;;;;;5059413;28;20036;-70
2022/07/24 07:12:23;;;;;;;51.05;26.08;;;20.20;99.90;;;;;;5059384;28;20140;-71
2022/07/24 07:14:49;;;;;;;48.25;25.75;;;20.20;99.90;;;;;;5058971;28;20045;-70
2022/07/24 07:17:15;;;;;;;48.20;24.77;;;20.40;99.90;;;;;;5057852;28;20059;-71
2022/07/24 07:19:42;;;;;;;45.15;23.58;;;20.40;99.90;;;;;;5056612;28;20451;-70
2022/07/24 07:22:08;;;;;;;42.13;22.85;;;20.60;99.90;;;;;;5056436;28;20055;-71
2022/07/24 07:24:33;;;;;;;42.53;22.73;;;20.70;99.90;;;;;;5072906;28;20399;-70
2022/07/24 07:26:59;;;;;;;44.47;22.77;;;20.70;99.90;;;;;;5058899;28;20458;-69
2022/07/24 07:29:25;;;;;;;38.50;19.48;;;20.80;99.90;;;;;;5057549;28;20478;-69
2022/07/24 07:31:50;;;;;;;35.42;18.83;;;20.80;99.90;;;;;;5058679;28;20037;-70
2022/07/24 07:34:16;;;;;;;34.03;19.13;;;20.90;99.90;;;;;;5052735;28;20041;-70
2022/07/24 07:36:41;;;;;;;34.20;18.98;;;20.90;99.90;;;;;;5058153;28;20044;-69
2022/07/24 07:39:07;;;;;;;35.03;18.98;;;20.90;99.90;;;;;;5058366;28;20487;-69
2022/07/24 07:41:33;;;;;;;31.08;17.67;;;21.00;99.90;;;;;;5061834;28;20098;-70
2022/07/24 07:43:59;;;;;;;32.92;16.65;;;21.00;99.90;;;;;;5058725;28;20047;-69
2022/07/24 07:46:25;;;;;;;25.70;16.20;;;21.10;99.90;;;;;;5061655;28;20036;-68
2022/07/24 07:48:51;;;;;;;35.38;16.65;;;21.10;99.90;;;;;;5057488;28;20040;-68
2022/07/24 07:51:17;;;;;;;30.65;16.13;;;21.20;99.90;;;;;;5062746;28;20044;-68
2022/07/24 07:53:42;;;;;;;23.77;14.48;;;21.20;99.90;;;;;;5058453;28;20033;-69
2022/07/24 07:56:08;;;;;;;22.80;13.13;;;21.30;99.90;;;;;;5059826;28;20107;-69
2022/07/24 07:58:34;;;;;;;20.65;10.35;;;21.50;99.90;;;;;;5054746;28;20197;-71
2022/07/24 08:01:00;;;;;;;16.95;9.68;;;21.50;99.90;;;;;;5056616;28;20032;-69
2022/07/24 08:03:26;;;;;;;17.02;8.95;;;21.60;99.90;;;;;;5059497;28;20045;-70
2022/07/24 08:05:52;;;;;;;14.43;9.00;;;21.70;99.90;;;;;;5062638;28;20083;-71
2022/07/24 08:08:18;;;;;;;14.13;8.32;;;21.90;99.90;;;;;;5070828;28;20075;-73
2022/07/24 08:10:45;;;;;;;13.32;8.45;;;22.10;99.90;;;;;;5062826;28;20064;-70
2022/07/24 08:13:12;;;;;;;14.23;8.98;;;22.20;99.90;;;;;;5088218;28;20052;-67
2022/07/24 08:15:38;;;;;;;17.38;8.65;;;22.40;99.90;;;;;;5080660;28;20392;-72
2022/07/24 08:18:03;;;;;;;12.90;7.85;;;22.70;99.90;;;;;;5058515;28;20494;-69
2022/07/24 08:20:29;;;;;;;13.88;8.73;;;22.80;99.90;;;;;;5054681;28;20044;-69
2022/07/24 08:22:55;;;;;;;12.63;8.10;;;22.70;99.90;;;;;;5059583;28;20051;-67
2022/07/24 08:25:21;;;;;;;12.68;8.38;;;22.60;99.90;;;;;;5071525;28;20119;-70
2022/07/24 08:27:47;;;;;;;14.07;8.20;;;22.50;99.90;;;;;;5060531;28;20043;-72
2022/07/24 08:30:14;;;;;;;13.98;8.50;;;22.60;99.90;;;;;;5072206;28;20047;-72
2022/07/24 08:32:40;;;;;;;13.43;7.63;;;22.70;99.90;;;;;;5070145;28;20047;-69
2022/07/24 08:35:07;;;;;;;10.60;7.47;;;22.90;99.90;;;;;;5068964;28;20143;-68
2022/07/24 08:37:39;;;;;;;13.68;8.73;;;23.00;99.90;;;;;;5088448;28;20033;-71
2022/07/24 08:40:06;;;;;;;13.13;8.30;;;23.10;99.90;;;;;;5074516;28;20051;-68
2022/07/24 08:42:32;;;;;;;12.02;8.02;;;23.00;99.90;;;;;;5091969;28;20135;-71
2022/07/24 08:44:58;;;;;;;14.38;8.60;;;23.00;99.90;;;;;;5078969;28;20148;-69
2022/07/24 08:47:25;;;;;;;12.85;8.30;;;23.00;99.90;;;;;;5088173;28;20037;-70
2022/07/24 08:49:54;;;;;;;13.65;8.13;;;23.00;99.90;;;;;;5060441;28;20036;-72
2022/07/24 08:52:21;;;;;;;12.98;8.00;;;23.00;99.90;;;;;;5055044;28;20124;-71
2022/07/24 08:54:47;;;;;;;10.63;7.40;;;22.90;99.90;;;;;;5071591;28;20044;-68
2022/07/24 08:57:14;;;;;;;13.05;8.40;;;23.00;99.90;;;;;;5059535;28;20097;-70
2022/07/24 08:59:40;;;;;;;10.63;7.55;;;23.10;99.90;;;;;;5056818;28;20040;-68
2022/07/24 09:02:06;;;;;;;13.02;7.70;;;23.30;99.90;;;;;;5071402;28;20406;-71
2022/07/24 09:05:00;;;;;;;9.77;7.32;;;23.50;99.90;;;;;;5065982;28;20040;-71
2022/07/24 09:07:28;;;;;;;12.10;6.63;;;23.70;99.90;;;;;;5051422;28;20060;-72
2022/07/24 09:10:03;;;;;;;11.95;6.60;;;23.90;99.90;;;;;;5051639;28;20099;-67
2022/07/24 09:12:34;;;;;;;9.45;6.20;;;24.00;99.90;;;;;;5053499;28;20041;-68
2022/07/24 09:15:01;;;;;;;10.90;6.88;;;23.80;99.90;;;;;;5076005;28;20483;-66
2022/07/24 09:17:28;;;;;;;8.98;6.30;;;23.70;99.90;;;;;;5070922;28;20052;-71
2022/07/24 09:19:55;;;;;;;9.25;6.40;;;23.70;99.90;;;;;;5064090;28;20048;-70
2022/07/24 09:22:36;;;;;;;9.25;5.75;;;23.70;99.90;;;;;;5060053;28;20079;-72
2022/07/24 09:25:17;;;;;;;10.88;6.85;;;23.90;99.90;;;;;;5069696;28;20171;-69
2022/07/24 09:28:01;;;;;;;9.73;6.43;;;23.90;99.90;;;;;;5062112;28;20090;-68
2022/07/24 09:30:34;;;;;;;9.65;6.15;;;23.80;99.90;;;;;;5085253;28;20047;-71
2022/07/24 09:33:05;;;;;;;9.25;5.57;;;24.00;99.90;;;;;;5072710;28;20443;-68
2022/07/24 09:35:37;;;;;;;11.13;6.73;;;24.20;99.90;;;;;;5073117;28;20036;-68
2022/07/24 09:38:06;;;;;;;9.48;5.82;;;24.30;99.90;;;;;;5062463;28;20052;-69
2022/07/24 09:40:41;;;;;;;10.50;5.78;;;24.50;99.90;;;;;;5070452;28;20043;-71
2022/07/24 09:43:22;;;;;;;8.25;5.90;;;24.60;99.90;;;;;;5068364;28;20051;-72
2022/07/24 09:45:59;;;;;;;14.07;6.22;;;24.60;99.90;;;;;;5070024;28;20491;-69
2022/07/24 09:48:39;;;;;;;9.35;6.28;;;24.60;99.90;;;;;;5072544;28;20040;-69
2022/07/24 09:51:11;;;;;;;11.32;5.97;;;24.60;99.90;;;;;;5090440;28;20181;-68
2022/07/24 09:53:37;;;;;;;10.52;6.40;;;24.70;99.90;;;;;;5070674;28;20112;-69
2022/07/24 09:56:06;;;;;;;8.25;5.82;;;24.70;99.90;;;;;;5049713;28;20146;-66
2022/07/24 09:58:37;;;;;;;7.80;6.15;;;24.80;99.90;;;;;;5051208;28;20048;-69
2022/07/24 10:01:05;;;;;;;12.48;6.38;;;24.80;99.90;;;;;;5049557;28;20045;-69
2022/07/24 10:03:33;;;;;;;10.27;6.22;;;24.90;99.90;;;;;;5054085;28;20032;-68
2022/07/24 10:06:04;;;;;;;10.00;6.32;;;25.10;99.90;;;;;;5058167;28;20040;-69
2022/07/24 10:08:32;;;;;;;10.30;5.93;;;25.20;99.90;;;;;;5058525;28;20037;-68
2022/07/24 10:10:58;;;;;;;9.60;6.15;;;25.20;99.90;;;;;;5067117;28;20591;-71
2022/07/24 10:13:27;;;;;;;9.48;5.90;;;25.20;99.90;;;;;;5069277;28;20048;-67
2022/07/24 10:16:11;;;;;;;7.18;6.18;;;25.30;99.90;;;;;;5058096;28;20043;-67
2022/07/24 10:18:48;;;;;;;9.13;5.85;;;25.30;99.90;;;;;;5055879;28;20516;-68
2022/07/24 10:21:17;;;;;;;10.07;5.80;;;25.30;99.90;;;;;;5063576;28;20036;-67
2022/07/24 10:24:07;;;;;;;8.05;5.55;;;25.30;99.90;;;;;;5059016;28;20079;-69
2022/07/24 10:26:39;;;;;;;9.63;5.43;;;25.40;99.90;;;;;;5058127;28;20040;-66
2022/07/24 10:29:20;;;;;;;7.32;5.47;;;25.30;99.90;;;;;;5057443;28;20072;-71
2022/07/24 10:31:47;;;;;;;9.55;6.05;;;25.30;99.90;;;;;;5067078;28;20033;-69
2022/07/24 10:34:47;;;;;;;11.68;5.60;;;25.30;99.90;;;;;;5061858;28;20483;-71
2022/07/24 10:37:36;;;;;;;8.88;5.75;;;25.40;99.90;;;;;;5070850;28;20115;-69
2022/07/24 10:40:24;;;;;;;11.85;5.22;;;25.40;99.90;;;;;;5072628;28;20408;-70
2022/07/24 10:43:09;;;;;;;8.15;5.85;;;25.50;99.90;;;;;;5075235;28;20107;-68
2022/07/24 10:45:36;;;;;;;8.25;5.45;;;25.50;99.90;;;;;;5065082;28;20372;-65
2022/07/24 10:48:20;;;;;;;7.95;5.70;;;25.50;99.90;;;;;;5068724;28;20115;-69
2022/07/24 10:50:57;;;;;;;9.05;5.50;;;25.50;99.90;;;;;;5078829;28;20040;-69
2022/07/24 10:53:28;;;;;;;8.73;5.53;;;25.70;99.90;;;;;;5059277;28;20075;-73
2022/07/24 10:56:13;;;;;;;8.25;5.43;;;25.70;99.90;;;;;;5059382;28;20521;-69
2022/07/24 10:59:03;;;;;;;9.52;5.90;;;25.80;99.90;;;;;;5073835;28;20237;-70
2022/07/24 11:01:34;;;;;;;10.90;5.85;;;25.80;99.90;;;;;;5054872;28;20044;-68
2022/07/24 11:04:01;;;;;;;8.52;5.45;;;25.80;99.90;;;;;;5052891;28;20036;-67
2022/07/24 11:06:50;;;;;;;7.65;5.65;;;25.80;99.90;;;;;;5054764;28;20041;-68
2022/07/24 11:09:20;;;;;;;7.05;5.45;;;25.90;99.90;;;;;;5058528;28;20044;-70
2022/07/24 11:11:52;;;;;;;9.13;5.13;;;25.90;99.90;;;;;;5053035;28;20380;-68
2022/07/24 11:14:26;;;;;;;8.63;5.18;;;25.90;99.90;;;;;;5062899;28;20048;-68
2022/07/24 11:16:52;;;;;;;8.15;5.60;;;25.90;99.90;;;;;;5060599;28;20032;-71
2022/07/24 11:19:17;;;;;;;8.45;5.85;;;25.90;99.90;;;;;;5065979;28;20071;-70
2022/07/24 11:21:47;;;;;;;9.55;5.22;;;26.00;99.90;;;;;;5068313;28;20059;-67
2022/07/24 11:24:17;;;;;;;8.85;5.55;;;26.00;99.90;;;;;;5066968;28;20546;-70
2022/07/24 11:26:49;;;;;;;6.47;5.20;;;26.10;99.90;;;;;;5064020;28;20399;-69
2022/07/24 11:29:18;;;;;;;8.82;5.60;;;26.10;99.90;;;;;;5062607;28;20359;-71
2022/07/24 11:31:46;;;;;;;8.82;5.63;;;26.10;99.90;;;;;;5069519;28;20053;-71
2022/07/24 11:34:12;;;;;;;6.70;5.35;;;26.10;99.90;;;;;;5059026;28;20041;-69
2022/07/24 11:36:42;;;;;;;17.33;5.22;;;25.90;99.90;;;;;;5068869;28;20589;-70
2022/07/24 11:39:08;;;;;;;7.55;5.38;;;25.90;99.90;;;;;;5073232;28;20064;-71
2022/07/24 11:41:46;;;;;;;7.28;5.10;;;26.00;99.90;;;;;;5075858;28;20071;-71
2022/07/24 11:44:13;;;;;;;10.55;5.75;;;26.10;99.90;;;;;;5071993;28;20391;-68
2022/07/24 11:46:41;;;;;;;10.35;5.57;;;26.20;99.90;;;;;;5057054;28;20660;-70
2022/07/24 11:49:12;;;;;;;8.77;5.60;;;26.30;99.90;;;;;;5072243;28;20039;-68
2022/07/24 11:51:45;;;;;;;7.30;5.50;;;26.40;99.90;;;;;;5071995;28;20041;-69
2022/07/24 11:54:13;;;;;;;8.95;5.97;;;26.50;99.90;;;;;;5060045;28;20045;-66
2022/07/24 11:56:39;;;;;;;7.20;5.63;;;26.60;99.90;;;;;;5076003;28;20047;-71
2022/07/24 11:59:04;;;;;;;7.40;5.47;;;26.70;99.90;;;;;;5063068;28;20552;-69
2022/07/24 12:01:31;;;;;;;10.48;6.03;;;26.80;99.90;;;;;;5059293;28;20131;-68
2022/07/24 12:03:59;;;;;;;8.38;6.07;;;26.70;99.90;;;;;;5057419;28;20124;-70
2022/07/24 12:06:28;;;;;;;8.88;5.88;;;26.80;99.90;;;;;;5054722;28;20094;-68
2022/07/24 12:09:04;;;;;;;7.63;5.63;;;26.80;99.90;;;;;;5060936;28;20056;-68
2022/07/24 12:11:35;;;;;;;11.82;6.03;;;26.80;99.90;;;;;;5056253;28;20029;-69
2022/07/24 12:14:01;;;;;;;10.90;5.88;;;26.80;99.90;;;;;;5059033;28;20094;-70
2022/07/24 12:16:30;;;;;;;7.63;5.88;;;26.80;99.90;;;;;;5052101;28;20048;-66
2022/07/24 12:19:16;;;;;;;8.27;5.78;;;26.80;99.90;;;;;;5060610;28;20119;-69
2022/07/24 12:21:43;;;;;;;8.48;5.80;;;26.80;98.90;;;;;;5053949;28;20067;-70
2022/07/24 12:24:10;;;;;;;10.48;5.78;;;26.80;99.90;;;;;;5062254;28;20044;-68
2022/07/24 12:26:52;;;;;;;9.73;5.53;;;26.90;99.90;;;;;;5055354;28;20041;-73
2022/07/24 12:29:19;;;;;;;10.63;5.70;;;26.90;99.90;;;;;;5056544;28;20372;-73
2022/07/24 12:31:45;;;;;;;7.28;6.22;;;26.80;99.90;;;;;;5054758;28;20033;-70
2022/07/24 12:34:10;;;;;;;10.68;5.95;;;26.80;99.90;;;;;;5054617;28;20044;-70
2022/07/24 12:36:37;;;;;;;9.40;5.88;;;26.90;99.70;;;;;;5061515;28;20127;-71